<?xml version="1.0" encoding="UTF-8" standalone="no" ?>
<gpx xmlns="http://www.topografix.com/GPX/1/1" xmlns:xsi="http://www.w3.org/2001/XMLSchema-instance" xsi:schemaLocation="http://www.topografix.com/GPX/1/1 http://www.topografix.com/GPX/1/1/gpx.xsd" version="1.1" creator="VisuGPX - https://www.visugpx.com">
  <metadata>
    <name>14070150-Valchevrière GR 3</name>
  </metadata>
  <trk>
    <name><![CDATA[14070150-Valchevrière GR 3]]></name>
    <trkseg>
      <trkpt lat="45.06223" lon="5.52379">
        <ele>1127</ele>
        <time>2022-01-15T12:01:08Z</time>
      </trkpt>
      <trkpt lat="45.0622" lon="5.52375">
        <ele>1127</ele>
        <time>2022-01-15T12:01:11Z</time>
      </trkpt>
      <trkpt lat="45.06215" lon="5.52361">
        <ele>1126</ele>
        <time>2022-01-15T12:01:20Z</time>
      </trkpt>
      <trkpt lat="45.06209" lon="5.5237">
        <ele>1127</ele>
        <time>2022-01-15T12:01:27Z</time>
      </trkpt>
      <trkpt lat="45.06202" lon="5.52373">
        <ele>1128</ele>
        <time>2022-01-15T12:01:33Z</time>
      </trkpt>
      <trkpt lat="45.06161" lon="5.52364">
        <ele>1131</ele>
        <time>2022-01-15T12:02:06Z</time>
      </trkpt>
      <trkpt lat="45.0612" lon="5.52369">
        <ele>1136</ele>
        <time>2022-01-15T12:02:39Z</time>
      </trkpt>
      <trkpt lat="45.06106" lon="5.52363">
        <ele>1137</ele>
        <time>2022-01-15T12:02:51Z</time>
      </trkpt>
      <trkpt lat="45.06089" lon="5.52348">
        <ele>1137</ele>
        <time>2022-01-15T12:03:07Z</time>
      </trkpt>
      <trkpt lat="45.06074" lon="5.52331">
        <ele>1137</ele>
        <time>2022-01-15T12:03:22Z</time>
      </trkpt>
      <trkpt lat="45.06058" lon="5.52317">
        <ele>1138</ele>
        <time>2022-01-15T12:03:37Z</time>
      </trkpt>
      <trkpt lat="45.0605" lon="5.52316">
        <ele>1138</ele>
        <time>2022-01-15T12:03:44Z</time>
      </trkpt>
      <trkpt lat="45.06047" lon="5.52307">
        <ele>1138</ele>
        <time>2022-01-15T12:03:49Z</time>
      </trkpt>
      <trkpt lat="45.06038" lon="5.52295">
        <ele>1137</ele>
        <time>2022-01-15T12:03:59Z</time>
      </trkpt>
      <trkpt lat="45.06025" lon="5.52292">
        <ele>1138</ele>
        <time>2022-01-15T12:04:10Z</time>
      </trkpt>
      <trkpt lat="45.06008" lon="5.52275">
        <ele>1137</ele>
        <time>2022-01-15T12:04:27Z</time>
      </trkpt>
      <trkpt lat="45.06004" lon="5.52268">
        <ele>1137</ele>
        <time>2022-01-15T12:04:32Z</time>
      </trkpt>
      <trkpt lat="45.06011" lon="5.52266">
        <ele>1137</ele>
        <time>2022-01-15T12:04:37Z</time>
      </trkpt>
      <trkpt lat="45.05995" lon="5.5225">
        <ele>1136</ele>
        <time>2022-01-15T12:04:53Z</time>
      </trkpt>
      <trkpt lat="45.05976" lon="5.52238">
        <ele>1135</ele>
        <time>2022-01-15T12:05:10Z</time>
      </trkpt>
      <trkpt lat="45.05963" lon="5.52225">
        <ele>1134</ele>
        <time>2022-01-15T12:05:22Z</time>
      </trkpt>
      <trkpt lat="45.05951" lon="5.52206">
        <ele>1133</ele>
        <time>2022-01-15T12:05:37Z</time>
      </trkpt>
      <trkpt lat="45.05916" lon="5.52182">
        <ele>1131</ele>
        <time>2022-01-15T12:06:08Z</time>
      </trkpt>
      <trkpt lat="45.05859" lon="5.52154">
        <ele>1128</ele>
        <time>2022-01-15T12:06:56Z</time>
      </trkpt>
      <trkpt lat="45.05846" lon="5.52146">
        <ele>1127</ele>
        <time>2022-01-15T12:07:08Z</time>
      </trkpt>
      <trkpt lat="45.05839" lon="5.52135">
        <ele>1127</ele>
        <time>2022-01-15T12:07:16Z</time>
      </trkpt>
      <trkpt lat="45.05832" lon="5.52119">
        <ele>1127</ele>
        <time>2022-01-15T12:07:27Z</time>
      </trkpt>
      <trkpt lat="45.05832" lon="5.52115">
        <ele>1127</ele>
        <time>2022-01-15T12:07:29Z</time>
      </trkpt>
      <trkpt lat="45.05835" lon="5.52096">
        <ele>1127</ele>
        <time>2022-01-15T12:07:40Z</time>
      </trkpt>
      <trkpt lat="45.0584" lon="5.5207">
        <ele>1128</ele>
        <time>2022-01-15T12:07:55Z</time>
      </trkpt>
      <trkpt lat="45.05855" lon="5.52017">
        <ele>1129</ele>
        <time>2022-01-15T12:08:27Z</time>
      </trkpt>
      <trkpt lat="45.05865" lon="5.51993">
        <ele>1128</ele>
        <time>2022-01-15T12:08:43Z</time>
      </trkpt>
      <trkpt lat="45.05878" lon="5.51946">
        <ele>1125</ele>
        <time>2022-01-15T12:09:12Z</time>
      </trkpt>
      <trkpt lat="45.05904" lon="5.51894">
        <ele>1120</ele>
        <time>2022-01-15T12:09:48Z</time>
      </trkpt>
      <trkpt lat="45.05932" lon="5.51838">
        <ele>1113</ele>
        <time>2022-01-15T12:10:27Z</time>
      </trkpt>
      <trkpt lat="45.05934" lon="5.51804">
        <ele>1111</ele>
        <time>2022-01-15T12:10:46Z</time>
      </trkpt>
      <trkpt lat="45.05939" lon="5.51772">
        <ele>1109</ele>
        <time>2022-01-15T12:11:04Z</time>
      </trkpt>
      <trkpt lat="45.05956" lon="5.51734">
        <ele>1106</ele>
        <time>2022-01-15T12:11:30Z</time>
      </trkpt>
      <trkpt lat="45.05952" lon="5.51724">
        <ele>1106</ele>
        <time>2022-01-15T12:11:36Z</time>
      </trkpt>
      <trkpt lat="45.05953" lon="5.5171">
        <ele>1105</ele>
        <time>2022-01-15T12:11:44Z</time>
      </trkpt>
      <trkpt lat="45.05952" lon="5.51724">
        <ele>1106</ele>
        <time>2022-01-15T12:11:52Z</time>
      </trkpt>
      <trkpt lat="45.05938" lon="5.5168">
        <ele>1105</ele>
        <time>2022-01-15T12:12:20Z</time>
      </trkpt>
      <trkpt lat="45.05924" lon="5.51618">
        <ele>1104</ele>
        <time>2022-01-15T12:12:56Z</time>
      </trkpt>
      <trkpt lat="45.05922" lon="5.51544">
        <ele>1105</ele>
        <time>2022-01-15T12:13:38Z</time>
      </trkpt>
      <trkpt lat="45.05912" lon="5.51498">
        <ele>1106</ele>
        <time>2022-01-15T12:14:06Z</time>
      </trkpt>
      <trkpt lat="45.0591" lon="5.51479">
        <ele>1107</ele>
        <time>2022-01-15T12:14:16Z</time>
      </trkpt>
      <trkpt lat="45.05909" lon="5.51453">
        <ele>1109</ele>
        <time>2022-01-15T12:14:31Z</time>
      </trkpt>
      <trkpt lat="45.059" lon="5.51415">
        <ele>1111</ele>
        <time>2022-01-15T12:14:54Z</time>
      </trkpt>
      <trkpt lat="45.05891" lon="5.51393">
        <ele>1112</ele>
        <time>2022-01-15T12:15:08Z</time>
      </trkpt>
      <trkpt lat="45.05888" lon="5.51371">
        <ele>1113</ele>
        <time>2022-01-15T12:15:21Z</time>
      </trkpt>
      <trkpt lat="45.05889" lon="5.51346">
        <ele>1114</ele>
        <time>2022-01-15T12:15:35Z</time>
      </trkpt>
      <trkpt lat="45.05895" lon="5.51323">
        <ele>1115</ele>
        <time>2022-01-15T12:15:49Z</time>
      </trkpt>
      <trkpt lat="45.05901" lon="5.51308">
        <ele>1115</ele>
        <time>2022-01-15T12:15:59Z</time>
      </trkpt>
      <trkpt lat="45.05925" lon="5.51277">
        <ele>1116</ele>
        <time>2022-01-15T12:16:25Z</time>
      </trkpt>
      <trkpt lat="45.05943" lon="5.51258">
        <ele>1117</ele>
        <time>2022-01-15T12:16:43Z</time>
      </trkpt>
      <trkpt lat="45.05965" lon="5.51229">
        <ele>1121</ele>
        <time>2022-01-15T12:17:07Z</time>
      </trkpt>
      <trkpt lat="45.0597" lon="5.51217">
        <ele>1122</ele>
        <time>2022-01-15T12:17:15Z</time>
      </trkpt>
      <trkpt lat="45.05981" lon="5.51175">
        <ele>1125</ele>
        <time>2022-01-15T12:17:40Z</time>
      </trkpt>
      <trkpt lat="45.05997" lon="5.51144">
        <ele>1127</ele>
        <time>2022-01-15T12:18:02Z</time>
      </trkpt>
      <trkpt lat="45.06028" lon="5.5109">
        <ele>1131</ele>
        <time>2022-01-15T12:18:41Z</time>
      </trkpt>
      <trkpt lat="45.06039" lon="5.51073">
        <ele>1132</ele>
        <time>2022-01-15T12:18:54Z</time>
      </trkpt>
      <trkpt lat="45.06049" lon="5.51042">
        <ele>1133</ele>
        <time>2022-01-15T12:19:13Z</time>
      </trkpt>
      <trkpt lat="45.06058" lon="5.51018">
        <ele>1133</ele>
        <time>2022-01-15T12:19:29Z</time>
      </trkpt>
      <trkpt lat="45.06066" lon="5.51003">
        <ele>1133</ele>
        <time>2022-01-15T12:19:39Z</time>
      </trkpt>
      <trkpt lat="45.0608" lon="5.50986">
        <ele>1133</ele>
        <time>2022-01-15T12:19:54Z</time>
      </trkpt>
      <trkpt lat="45.06108" lon="5.50965">
        <ele>1137</ele>
        <time>2022-01-15T12:20:19Z</time>
      </trkpt>
      <trkpt lat="45.06141" lon="5.50934">
        <ele>1141</ele>
        <time>2022-01-15T12:20:51Z</time>
      </trkpt>
      <trkpt lat="45.06134" lon="5.50904">
        <ele>1145</ele>
        <time>2022-01-15T12:21:09Z</time>
      </trkpt>
      <trkpt lat="45.0613" lon="5.50879">
        <ele>1148</ele>
        <time>2022-01-15T12:21:23Z</time>
      </trkpt>
      <trkpt lat="45.06123" lon="5.50863">
        <ele>1151</ele>
        <time>2022-01-15T12:21:34Z</time>
      </trkpt>
      <trkpt lat="45.06127" lon="5.50846">
        <ele>1153</ele>
        <time>2022-01-15T12:21:44Z</time>
      </trkpt>
      <trkpt lat="45.06139" lon="5.5082">
        <ele>1157</ele>
        <time>2022-01-15T12:22:02Z</time>
      </trkpt>
      <trkpt lat="45.06157" lon="5.50802">
        <ele>1160</ele>
        <time>2022-01-15T12:22:19Z</time>
      </trkpt>
      <trkpt lat="45.06176" lon="5.50794">
        <ele>1161</ele>
        <time>2022-01-15T12:22:35Z</time>
      </trkpt>
      <trkpt lat="45.06188" lon="5.50781">
        <ele>1164</ele>
        <time>2022-01-15T12:22:47Z</time>
      </trkpt>
      <trkpt lat="45.06199" lon="5.50773">
        <ele>1166</ele>
        <time>2022-01-15T12:22:57Z</time>
      </trkpt>
      <trkpt lat="45.06198" lon="5.50766">
        <ele>1167</ele>
        <time>2022-01-15T12:23:01Z</time>
      </trkpt>
      <trkpt lat="45.06147" lon="5.50743">
        <ele>1174</ele>
        <time>2022-01-15T12:23:44Z</time>
      </trkpt>
      <trkpt lat="45.06136" lon="5.50728">
        <ele>1179</ele>
        <time>2022-01-15T12:23:56Z</time>
      </trkpt>
      <trkpt lat="45.06126" lon="5.50724">
        <ele>1181</ele>
        <time>2022-01-15T12:24:05Z</time>
      </trkpt>
      <trkpt lat="45.06122" lon="5.50718">
        <ele>1184</ele>
        <time>2022-01-15T12:24:09Z</time>
      </trkpt>
      <trkpt lat="45.06121" lon="5.5071">
        <ele>1186</ele>
        <time>2022-01-15T12:24:14Z</time>
      </trkpt>
      <trkpt lat="45.06124" lon="5.5069">
        <ele>1190</ele>
        <time>2022-01-15T12:24:26Z</time>
      </trkpt>
      <trkpt lat="45.06128" lon="5.50677">
        <ele>1193</ele>
        <time>2022-01-15T12:24:34Z</time>
      </trkpt>
      <trkpt lat="45.06167" lon="5.5063">
        <ele>1190</ele>
        <time>2022-01-15T12:25:15Z</time>
      </trkpt>
      <trkpt lat="45.06169" lon="5.5061">
        <ele>1192</ele>
        <time>2022-01-15T12:25:26Z</time>
      </trkpt>
      <trkpt lat="45.06198" lon="5.50587">
        <ele>1192</ele>
        <time>2022-01-15T12:25:53Z</time>
      </trkpt>
      <trkpt lat="45.06242" lon="5.50553">
        <ele>1191</ele>
        <time>2022-01-15T12:26:33Z</time>
      </trkpt>
      <trkpt lat="45.06313" lon="5.5051">
        <ele>1183</ele>
        <time>2022-01-15T12:27:35Z</time>
      </trkpt>
      <trkpt lat="45.06327" lon="5.50498">
        <ele>1180</ele>
        <time>2022-01-15T12:27:48Z</time>
      </trkpt>
      <trkpt lat="45.06346" lon="5.5047">
        <ele>1179</ele>
        <time>2022-01-15T12:28:10Z</time>
      </trkpt>
      <trkpt lat="45.06373" lon="5.50392">
        <ele>1177</ele>
        <time>2022-01-15T12:28:59Z</time>
      </trkpt>
      <trkpt lat="45.06401" lon="5.50331">
        <ele>1176</ele>
        <time>2022-01-15T12:29:40Z</time>
      </trkpt>
      <trkpt lat="45.06423" lon="5.50268">
        <ele>1180</ele>
        <time>2022-01-15T12:30:20Z</time>
      </trkpt>
      <trkpt lat="45.0644" lon="5.50217">
        <ele>1183</ele>
        <time>2022-01-15T12:30:52Z</time>
      </trkpt>
      <trkpt lat="45.06459" lon="5.50169">
        <ele>1185</ele>
        <time>2022-01-15T12:31:23Z</time>
      </trkpt>
      <trkpt lat="45.06466" lon="5.50148">
        <ele>1188</ele>
        <time>2022-01-15T12:31:36Z</time>
      </trkpt>
      <trkpt lat="45.06506" lon="5.50108">
        <ele>1187</ele>
        <time>2022-01-15T12:32:15Z</time>
      </trkpt>
      <trkpt lat="45.0654" lon="5.50084">
        <ele>1188</ele>
        <time>2022-01-15T12:32:46Z</time>
      </trkpt>
      <trkpt lat="45.06576" lon="5.50058">
        <ele>1189</ele>
        <time>2022-01-15T12:33:18Z</time>
      </trkpt>
      <trkpt lat="45.0659" lon="5.50039">
        <ele>1190</ele>
        <time>2022-01-15T12:33:33Z</time>
      </trkpt>
      <trkpt lat="45.06604" lon="5.50018">
        <ele>1191</ele>
        <time>2022-01-15T12:33:50Z</time>
      </trkpt>
      <trkpt lat="45.06625" lon="5.50006">
        <ele>1188</ele>
        <time>2022-01-15T12:34:08Z</time>
      </trkpt>
      <trkpt lat="45.06626" lon="5.49991">
        <ele>1190</ele>
        <time>2022-01-15T12:34:16Z</time>
      </trkpt>
      <trkpt lat="45.0663" lon="5.49977">
        <ele>1190</ele>
        <time>2022-01-15T12:34:25Z</time>
      </trkpt>
      <trkpt lat="45.06629" lon="5.49971">
        <ele>1191</ele>
        <time>2022-01-15T12:34:28Z</time>
      </trkpt>
      <trkpt lat="45.06605" lon="5.4993">
        <ele>1202</ele>
        <time>2022-01-15T12:34:59Z</time>
      </trkpt>
      <trkpt lat="45.06599" lon="5.49909">
        <ele>1205</ele>
        <time>2022-01-15T12:35:11Z</time>
      </trkpt>
      <trkpt lat="45.06598" lon="5.49898">
        <ele>1205</ele>
        <time>2022-01-15T12:35:18Z</time>
      </trkpt>
      <trkpt lat="45.06601" lon="5.49887">
        <ele>1204</ele>
        <time>2022-01-15T12:35:24Z</time>
      </trkpt>
      <trkpt lat="45.06624" lon="5.4985">
        <ele>1197</ele>
        <time>2022-01-15T12:35:52Z</time>
      </trkpt>
      <trkpt lat="45.06627" lon="5.49836">
        <ele>1196</ele>
        <time>2022-01-15T12:36:00Z</time>
      </trkpt>
      <trkpt lat="45.06625" lon="5.49824">
        <ele>1196</ele>
        <time>2022-01-15T12:36:07Z</time>
      </trkpt>
      <trkpt lat="45.06612" lon="5.4978">
        <ele>1199</ele>
        <time>2022-01-15T12:36:34Z</time>
      </trkpt>
      <trkpt lat="45.06573" lon="5.49677">
        <ele>1195</ele>
        <time>2022-01-15T12:37:40Z</time>
      </trkpt>
      <trkpt lat="45.06562" lon="5.49661">
        <ele>1195</ele>
        <time>2022-01-15T12:37:53Z</time>
      </trkpt>
      <trkpt lat="45.06535" lon="5.49647">
        <ele>1199</ele>
        <time>2022-01-15T12:38:16Z</time>
      </trkpt>
      <trkpt lat="45.06501" lon="5.49617">
        <ele>1198</ele>
        <time>2022-01-15T12:38:48Z</time>
      </trkpt>
      <trkpt lat="45.06475" lon="5.49579">
        <ele>1197</ele>
        <time>2022-01-15T12:39:18Z</time>
      </trkpt>
      <trkpt lat="45.06458" lon="5.49548">
        <ele>1191</ele>
        <time>2022-01-15T12:39:40Z</time>
      </trkpt>
      <trkpt lat="45.06445" lon="5.49514">
        <ele>1180</ele>
        <time>2022-01-15T12:40:02Z</time>
      </trkpt>
      <trkpt lat="45.06434" lon="5.49475">
        <ele>1171</ele>
        <time>2022-01-15T12:40:26Z</time>
      </trkpt>
      <trkpt lat="45.06345" lon="5.49346">
        <ele>1175</ele>
        <time>2022-01-15T12:42:08Z</time>
      </trkpt>
      <trkpt lat="45.06314" lon="5.49307">
        <ele>1183</ele>
        <time>2022-01-15T12:42:41Z</time>
      </trkpt>
      <trkpt lat="45.06293" lon="5.4928">
        <ele>1193</ele>
        <time>2022-01-15T12:43:04Z</time>
      </trkpt>
      <trkpt lat="45.06288" lon="5.49261">
        <ele>1195</ele>
        <time>2022-01-15T12:43:15Z</time>
      </trkpt>
      <trkpt lat="45.06289" lon="5.49254">
        <ele>1194</ele>
        <time>2022-01-15T12:43:19Z</time>
      </trkpt>
      <trkpt lat="45.0629" lon="5.49239">
        <ele>1195</ele>
        <time>2022-01-15T12:43:28Z</time>
      </trkpt>
      <trkpt lat="45.06293" lon="5.49232">
        <ele>1194</ele>
        <time>2022-01-15T12:43:32Z</time>
      </trkpt>
      <trkpt lat="45.06365" lon="5.49098">
        <ele>1174</ele>
        <time>2022-01-15T12:45:08Z</time>
      </trkpt>
      <trkpt lat="45.0639" lon="5.49047">
        <ele>1171</ele>
        <time>2022-01-15T12:45:43Z</time>
      </trkpt>
      <trkpt lat="45.06406" lon="5.48997">
        <ele>1171</ele>
        <time>2022-01-15T12:46:14Z</time>
      </trkpt>
      <trkpt lat="45.06418" lon="5.48956">
        <ele>1166</ele>
        <time>2022-01-15T12:46:39Z</time>
      </trkpt>
      <trkpt lat="45.06423" lon="5.48906">
        <ele>1163</ele>
        <time>2022-01-15T12:47:07Z</time>
      </trkpt>
      <trkpt lat="45.06414" lon="5.48811">
        <ele>1154</ele>
        <time>2022-01-15T12:48:02Z</time>
      </trkpt>
      <trkpt lat="45.06412" lon="5.488">
        <ele>1153</ele>
        <time>2022-01-15T12:48:08Z</time>
      </trkpt>
      <trkpt lat="45.06414" lon="5.48811">
        <ele>1154</ele>
        <time>2022-01-15T12:48:15Z</time>
      </trkpt>
      <trkpt lat="45.06473" lon="5.48906">
        <ele>1141</ele>
        <time>2022-01-15T12:49:26Z</time>
      </trkpt>
      <trkpt lat="45.06481" lon="5.48913">
        <ele>1139</ele>
        <time>2022-01-15T12:49:34Z</time>
      </trkpt>
      <trkpt lat="45.06485" lon="5.48919">
        <ele>1137</ele>
        <time>2022-01-15T12:49:38Z</time>
      </trkpt>
      <trkpt lat="45.06491" lon="5.48922">
        <ele>1135</ele>
        <time>2022-01-15T12:49:43Z</time>
      </trkpt>
      <trkpt lat="45.06501" lon="5.48929">
        <ele>1130</ele>
        <time>2022-01-15T12:49:52Z</time>
      </trkpt>
      <trkpt lat="45.06515" lon="5.48962">
        <ele>1125</ele>
        <time>2022-01-15T12:50:14Z</time>
      </trkpt>
      <trkpt lat="45.06523" lon="5.48977">
        <ele>1124</ele>
        <time>2022-01-15T12:50:25Z</time>
      </trkpt>
      <trkpt lat="45.06537" lon="5.48966">
        <ele>1121</ele>
        <time>2022-01-15T12:50:38Z</time>
      </trkpt>
      <trkpt lat="45.06542" lon="5.48959">
        <ele>1119</ele>
        <time>2022-01-15T12:50:43Z</time>
      </trkpt>
      <trkpt lat="45.06574" lon="5.48939">
        <ele>1110</ele>
        <time>2022-01-15T12:51:11Z</time>
      </trkpt>
      <trkpt lat="45.06525" lon="5.48977">
        <ele>1123</ele>
        <time>2022-01-15T12:51:56Z</time>
      </trkpt>
      <trkpt lat="45.06507" lon="5.4894">
        <ele>1128</ele>
        <time>2022-01-15T12:52:21Z</time>
      </trkpt>
      <trkpt lat="45.06501" lon="5.48929">
        <ele>1130</ele>
        <time>2022-01-15T12:52:29Z</time>
      </trkpt>
      <trkpt lat="45.06491" lon="5.48922">
        <ele>1135</ele>
        <time>2022-01-15T12:52:38Z</time>
      </trkpt>
      <trkpt lat="45.06485" lon="5.48919">
        <ele>1137</ele>
        <time>2022-01-15T12:52:43Z</time>
      </trkpt>
      <trkpt lat="45.06481" lon="5.48913">
        <ele>1139</ele>
        <time>2022-01-15T12:52:48Z</time>
      </trkpt>
      <trkpt lat="45.06473" lon="5.48906">
        <ele>1141</ele>
        <time>2022-01-15T12:52:55Z</time>
      </trkpt>
      <trkpt lat="45.06431" lon="5.48837">
        <ele>1151</ele>
        <time>2022-01-15T12:53:47Z</time>
      </trkpt>
      <trkpt lat="45.06419" lon="5.48811">
        <ele>1152</ele>
        <time>2022-01-15T12:54:04Z</time>
      </trkpt>
      <trkpt lat="45.06414" lon="5.48811">
        <ele>1154</ele>
        <time>2022-01-15T12:54:08Z</time>
      </trkpt>
      <trkpt lat="45.06398" lon="5.4874">
        <ele>1148</ele>
        <time>2022-01-15T12:54:51Z</time>
      </trkpt>
      <trkpt lat="45.06336" lon="5.4858">
        <ele>1146</ele>
        <time>2022-01-15T12:56:34Z</time>
      </trkpt>
      <trkpt lat="45.06308" lon="5.48528">
        <ele>1153</ele>
        <time>2022-01-15T12:57:11Z</time>
      </trkpt>
      <trkpt lat="45.06291" lon="5.48481">
        <ele>1156</ele>
        <time>2022-01-15T12:57:41Z</time>
      </trkpt>
      <trkpt lat="45.06277" lon="5.48447">
        <ele>1157</ele>
        <time>2022-01-15T12:58:03Z</time>
      </trkpt>
      <trkpt lat="45.06265" lon="5.48417">
        <ele>1156</ele>
        <time>2022-01-15T12:58:22Z</time>
      </trkpt>
      <trkpt lat="45.06261" lon="5.48396">
        <ele>1161</ele>
        <time>2022-01-15T12:58:35Z</time>
      </trkpt>
      <trkpt lat="45.0619" lon="5.48348">
        <ele>1174</ele>
        <time>2022-01-15T12:59:38Z</time>
      </trkpt>
      <trkpt lat="45.06098" lon="5.48277">
        <ele>1194</ele>
        <time>2022-01-15T13:01:02Z</time>
      </trkpt>
      <trkpt lat="45.05996" lon="5.48213">
        <ele>1218</ele>
        <time>2022-01-15T13:02:31Z</time>
      </trkpt>
      <trkpt lat="45.0595" lon="5.4819">
        <ele>1225</ele>
        <time>2022-01-15T13:03:10Z</time>
      </trkpt>
      <trkpt lat="45.05934" lon="5.48156">
        <ele>1230</ele>
        <time>2022-01-15T13:03:33Z</time>
      </trkpt>
      <trkpt lat="45.05899" lon="5.48122">
        <ele>1239</ele>
        <time>2022-01-15T13:04:07Z</time>
      </trkpt>
      <trkpt lat="45.05851" lon="5.48098">
        <ele>1244</ele>
        <time>2022-01-15T13:04:48Z</time>
      </trkpt>
      <trkpt lat="45.05813" lon="5.48047">
        <ele>1252</ele>
        <time>2022-01-15T13:05:30Z</time>
      </trkpt>
      <trkpt lat="45.05789" lon="5.47994">
        <ele>1257</ele>
        <time>2022-01-15T13:06:05Z</time>
      </trkpt>
      <trkpt lat="45.05757" lon="5.47946">
        <ele>1259</ele>
        <time>2022-01-15T13:06:43Z</time>
      </trkpt>
      <trkpt lat="45.05736" lon="5.47926">
        <ele>1260</ele>
        <time>2022-01-15T13:07:03Z</time>
      </trkpt>
      <trkpt lat="45.05743" lon="5.47939">
        <ele>1259</ele>
        <time>2022-01-15T13:07:12Z</time>
      </trkpt>
      <trkpt lat="45.05756" lon="5.47975">
        <ele>1257</ele>
        <time>2022-01-15T13:07:35Z</time>
      </trkpt>
      <trkpt lat="45.0576" lon="5.48008">
        <ele>1255</ele>
        <time>2022-01-15T13:07:54Z</time>
      </trkpt>
      <trkpt lat="45.05774" lon="5.48063">
        <ele>1254</ele>
        <time>2022-01-15T13:08:27Z</time>
      </trkpt>
      <trkpt lat="45.05805" lon="5.48144">
        <ele>1250</ele>
        <time>2022-01-15T13:09:19Z</time>
      </trkpt>
      <trkpt lat="45.05828" lon="5.48199">
        <ele>1248</ele>
        <time>2022-01-15T13:09:55Z</time>
      </trkpt>
      <trkpt lat="45.05862" lon="5.48261">
        <ele>1247</ele>
        <time>2022-01-15T13:10:40Z</time>
      </trkpt>
      <trkpt lat="45.05888" lon="5.48301">
        <ele>1245</ele>
        <time>2022-01-15T13:11:10Z</time>
      </trkpt>
      <trkpt lat="45.05907" lon="5.48337">
        <ele>1244</ele>
        <time>2022-01-15T13:11:36Z</time>
      </trkpt>
      <trkpt lat="45.05969" lon="5.48438">
        <ele>1237</ele>
        <time>2022-01-15T13:12:52Z</time>
      </trkpt>
      <trkpt lat="45.06026" lon="5.48544">
        <ele>1233</ele>
        <time>2022-01-15T13:14:07Z</time>
      </trkpt>
      <trkpt lat="45.0611" lon="5.48689">
        <ele>1235</ele>
        <time>2022-01-15T13:15:53Z</time>
      </trkpt>
      <trkpt lat="45.06152" lon="5.48724">
        <ele>1234</ele>
        <time>2022-01-15T13:16:32Z</time>
      </trkpt>
      <trkpt lat="45.06202" lon="5.48762">
        <ele>1226</ele>
        <time>2022-01-15T13:17:17Z</time>
      </trkpt>
      <trkpt lat="45.06243" lon="5.48816">
        <ele>1224</ele>
        <time>2022-01-15T13:18:02Z</time>
      </trkpt>
      <trkpt lat="45.06299" lon="5.4893">
        <ele>1226</ele>
        <time>2022-01-15T13:19:21Z</time>
      </trkpt>
      <trkpt lat="45.0631" lon="5.48997">
        <ele>1223</ele>
        <time>2022-01-15T13:20:00Z</time>
      </trkpt>
      <trkpt lat="45.06309" lon="5.49022">
        <ele>1221</ele>
        <time>2022-01-15T13:20:14Z</time>
      </trkpt>
      <trkpt lat="45.06303" lon="5.49064">
        <ele>1221</ele>
        <time>2022-01-15T13:20:38Z</time>
      </trkpt>
      <trkpt lat="45.063" lon="5.49081">
        <ele>1222</ele>
        <time>2022-01-15T13:20:48Z</time>
      </trkpt>
      <trkpt lat="45.06287" lon="5.4912">
        <ele>1224</ele>
        <time>2022-01-15T13:21:12Z</time>
      </trkpt>
      <trkpt lat="45.06279" lon="5.49147">
        <ele>1223</ele>
        <time>2022-01-15T13:21:29Z</time>
      </trkpt>
      <trkpt lat="45.06276" lon="5.49175">
        <ele>1218</ele>
        <time>2022-01-15T13:21:45Z</time>
      </trkpt>
      <trkpt lat="45.06271" lon="5.49193">
        <ele>1218</ele>
        <time>2022-01-15T13:21:56Z</time>
      </trkpt>
      <trkpt lat="45.06264" lon="5.49209">
        <ele>1220</ele>
        <time>2022-01-15T13:22:07Z</time>
      </trkpt>
      <trkpt lat="45.06237" lon="5.4925">
        <ele>1228</ele>
        <time>2022-01-15T13:22:38Z</time>
      </trkpt>
      <trkpt lat="45.06234" lon="5.49261">
        <ele>1229</ele>
        <time>2022-01-15T13:22:45Z</time>
      </trkpt>
      <trkpt lat="45.06234" lon="5.49279">
        <ele>1229</ele>
        <time>2022-01-15T13:22:55Z</time>
      </trkpt>
      <trkpt lat="45.06236" lon="5.49288">
        <ele>1227</ele>
        <time>2022-01-15T13:23:00Z</time>
      </trkpt>
      <trkpt lat="45.06242" lon="5.49295">
        <ele>1223</ele>
        <time>2022-01-15T13:23:07Z</time>
      </trkpt>
      <trkpt lat="45.06264" lon="5.49309">
        <ele>1211</ele>
        <time>2022-01-15T13:23:26Z</time>
      </trkpt>
      <trkpt lat="45.06273" lon="5.49317">
        <ele>1206</ele>
        <time>2022-01-15T13:23:35Z</time>
      </trkpt>
      <trkpt lat="45.06317" lon="5.49394">
        <ele>1198</ele>
        <time>2022-01-15T13:24:31Z</time>
      </trkpt>
      <trkpt lat="45.06349" lon="5.49445">
        <ele>1199</ele>
        <time>2022-01-15T13:25:09Z</time>
      </trkpt>
      <trkpt lat="45.06365" lon="5.49465">
        <ele>1199</ele>
        <time>2022-01-15T13:25:26Z</time>
      </trkpt>
      <trkpt lat="45.06384" lon="5.49479">
        <ele>1196</ele>
        <time>2022-01-15T13:25:43Z</time>
      </trkpt>
      <trkpt lat="45.06409" lon="5.4949">
        <ele>1188</ele>
        <time>2022-01-15T13:26:04Z</time>
      </trkpt>
      <trkpt lat="45.06434" lon="5.49498">
        <ele>1178</ele>
        <time>2022-01-15T13:26:25Z</time>
      </trkpt>
      <trkpt lat="45.06443" lon="5.49508">
        <ele>1178</ele>
        <time>2022-01-15T13:26:34Z</time>
      </trkpt>
      <trkpt lat="45.06442" lon="5.49504">
        <ele>1177</ele>
        <time>2022-01-15T13:26:36Z</time>
      </trkpt>
      <trkpt lat="45.06443" lon="5.49508">
        <ele>1178</ele>
        <time>2022-01-15T13:26:39Z</time>
      </trkpt>
      <trkpt lat="45.06458" lon="5.49548">
        <ele>1191</ele>
        <time>2022-01-15T13:27:04Z</time>
      </trkpt>
      <trkpt lat="45.06475" lon="5.49579">
        <ele>1197</ele>
        <time>2022-01-15T13:27:27Z</time>
      </trkpt>
      <trkpt lat="45.06501" lon="5.49617">
        <ele>1198</ele>
        <time>2022-01-15T13:27:57Z</time>
      </trkpt>
      <trkpt lat="45.06535" lon="5.49647">
        <ele>1199</ele>
        <time>2022-01-15T13:28:29Z</time>
      </trkpt>
      <trkpt lat="45.06562" lon="5.49661">
        <ele>1195</ele>
        <time>2022-01-15T13:28:52Z</time>
      </trkpt>
      <trkpt lat="45.06573" lon="5.49677">
        <ele>1195</ele>
        <time>2022-01-15T13:29:04Z</time>
      </trkpt>
      <trkpt lat="45.06612" lon="5.4978">
        <ele>1199</ele>
        <time>2022-01-15T13:30:10Z</time>
      </trkpt>
      <trkpt lat="45.06625" lon="5.49824">
        <ele>1196</ele>
        <time>2022-01-15T13:30:37Z</time>
      </trkpt>
      <trkpt lat="45.06627" lon="5.49836">
        <ele>1196</ele>
        <time>2022-01-15T13:30:44Z</time>
      </trkpt>
      <trkpt lat="45.06624" lon="5.4985">
        <ele>1197</ele>
        <time>2022-01-15T13:30:53Z</time>
      </trkpt>
      <trkpt lat="45.06601" lon="5.49887">
        <ele>1204</ele>
        <time>2022-01-15T13:31:20Z</time>
      </trkpt>
      <trkpt lat="45.06598" lon="5.49898">
        <ele>1205</ele>
        <time>2022-01-15T13:31:27Z</time>
      </trkpt>
      <trkpt lat="45.06599" lon="5.49909">
        <ele>1205</ele>
        <time>2022-01-15T13:31:33Z</time>
      </trkpt>
      <trkpt lat="45.06605" lon="5.4993">
        <ele>1202</ele>
        <time>2022-01-15T13:31:46Z</time>
      </trkpt>
      <trkpt lat="45.06629" lon="5.49971">
        <ele>1191</ele>
        <time>2022-01-15T13:32:16Z</time>
      </trkpt>
      <trkpt lat="45.0663" lon="5.49977">
        <ele>1190</ele>
        <time>2022-01-15T13:32:20Z</time>
      </trkpt>
      <trkpt lat="45.06626" lon="5.49991">
        <ele>1190</ele>
        <time>2022-01-15T13:32:28Z</time>
      </trkpt>
      <trkpt lat="45.06622" lon="5.49997">
        <ele>1190</ele>
        <time>2022-01-15T13:32:33Z</time>
      </trkpt>
      <trkpt lat="45.06612" lon="5.50007">
        <ele>1191</ele>
        <time>2022-01-15T13:32:43Z</time>
      </trkpt>
      <trkpt lat="45.06562" lon="5.50072">
        <ele>1188</ele>
        <time>2022-01-15T13:33:37Z</time>
      </trkpt>
      <trkpt lat="45.06495" lon="5.50123">
        <ele>1186</ele>
        <time>2022-01-15T13:34:38Z</time>
      </trkpt>
      <trkpt lat="45.06457" lon="5.50176">
        <ele>1185</ele>
        <time>2022-01-15T13:35:21Z</time>
      </trkpt>
      <trkpt lat="45.06396" lon="5.50342">
        <ele>1176</ele>
        <time>2022-01-15T13:37:07Z</time>
      </trkpt>
      <trkpt lat="45.06358" lon="5.50439">
        <ele>1178</ele>
        <time>2022-01-15T13:38:09Z</time>
      </trkpt>
      <trkpt lat="45.06328" lon="5.50506">
        <ele>1180</ele>
        <time>2022-01-15T13:38:54Z</time>
      </trkpt>
      <trkpt lat="45.06313" lon="5.5051">
        <ele>1183</ele>
        <time>2022-01-15T13:39:06Z</time>
      </trkpt>
      <trkpt lat="45.06242" lon="5.50553">
        <ele>1191</ele>
        <time>2022-01-15T13:40:08Z</time>
      </trkpt>
      <trkpt lat="45.06198" lon="5.50587">
        <ele>1192</ele>
        <time>2022-01-15T13:40:48Z</time>
      </trkpt>
      <trkpt lat="45.06169" lon="5.5061">
        <ele>1192</ele>
        <time>2022-01-15T13:41:15Z</time>
      </trkpt>
      <trkpt lat="45.06154" lon="5.5065">
        <ele>1191</ele>
        <time>2022-01-15T13:41:41Z</time>
      </trkpt>
      <trkpt lat="45.06133" lon="5.50668">
        <ele>1194</ele>
        <time>2022-01-15T13:42:00Z</time>
      </trkpt>
      <trkpt lat="45.06131" lon="5.50704">
        <ele>1185</ele>
        <time>2022-01-15T13:42:21Z</time>
      </trkpt>
      <trkpt lat="45.06133" lon="5.50733">
        <ele>1178</ele>
        <time>2022-01-15T13:42:37Z</time>
      </trkpt>
      <trkpt lat="45.0617" lon="5.50735">
        <ele>1173</ele>
        <time>2022-01-15T13:43:07Z</time>
      </trkpt>
      <trkpt lat="45.06203" lon="5.50764">
        <ele>1168</ele>
        <time>2022-01-15T13:43:38Z</time>
      </trkpt>
      <trkpt lat="45.06146" lon="5.5081">
        <ele>1159</ele>
        <time>2022-01-15T13:44:30Z</time>
      </trkpt>
      <trkpt lat="45.06132" lon="5.50831">
        <ele>1155</ele>
        <time>2022-01-15T13:44:47Z</time>
      </trkpt>
      <trkpt lat="45.06137" lon="5.50906">
        <ele>1144</ele>
        <time>2022-01-15T13:45:29Z</time>
      </trkpt>
      <trkpt lat="45.06144" lon="5.50975">
        <ele>1138</ele>
        <time>2022-01-15T13:46:09Z</time>
      </trkpt>
      <trkpt lat="45.06144" lon="5.51023">
        <ele>1135</ele>
        <time>2022-01-15T13:46:36Z</time>
      </trkpt>
      <trkpt lat="45.06128" lon="5.51042">
        <ele>1134</ele>
        <time>2022-01-15T13:46:53Z</time>
      </trkpt>
      <trkpt lat="45.06078" lon="5.51086">
        <ele>1133</ele>
        <time>2022-01-15T13:47:40Z</time>
      </trkpt>
      <trkpt lat="45.06063" lon="5.51172">
        <ele>1128</ele>
        <time>2022-01-15T13:48:30Z</time>
      </trkpt>
      <trkpt lat="45.06045" lon="5.51242">
        <ele>1123</ele>
        <time>2022-01-15T13:49:12Z</time>
      </trkpt>
      <trkpt lat="45.06046" lon="5.51325">
        <ele>1119</ele>
        <time>2022-01-15T13:49:59Z</time>
      </trkpt>
      <trkpt lat="45.06053" lon="5.5138">
        <ele>1116</ele>
        <time>2022-01-15T13:50:31Z</time>
      </trkpt>
      <trkpt lat="45.06055" lon="5.51423">
        <ele>1113</ele>
        <time>2022-01-15T13:50:55Z</time>
      </trkpt>
      <trkpt lat="45.06048" lon="5.51492">
        <ele>1104</ele>
        <time>2022-01-15T13:51:34Z</time>
      </trkpt>
      <trkpt lat="45.06038" lon="5.51528">
        <ele>1100</ele>
        <time>2022-01-15T13:51:56Z</time>
      </trkpt>
      <trkpt lat="45.06028" lon="5.51572">
        <ele>1097</ele>
        <time>2022-01-15T13:52:22Z</time>
      </trkpt>
      <trkpt lat="45.06022" lon="5.51587">
        <ele>1097</ele>
        <time>2022-01-15T13:52:32Z</time>
      </trkpt>
      <trkpt lat="45.06001" lon="5.51625">
        <ele>1097</ele>
        <time>2022-01-15T13:52:59Z</time>
      </trkpt>
      <trkpt lat="45.05962" lon="5.51681">
        <ele>1103</ele>
        <time>2022-01-15T13:53:44Z</time>
      </trkpt>
      <trkpt lat="45.05954" lon="5.51697">
        <ele>1104</ele>
        <time>2022-01-15T13:53:55Z</time>
      </trkpt>
      <trkpt lat="45.05952" lon="5.51724">
        <ele>1106</ele>
        <time>2022-01-15T13:54:10Z</time>
      </trkpt>
      <trkpt lat="45.05954" lon="5.51734">
        <ele>1106</ele>
        <time>2022-01-15T13:54:16Z</time>
      </trkpt>
      <trkpt lat="45.05976" lon="5.518">
        <ele>1109</ele>
        <time>2022-01-15T13:54:57Z</time>
      </trkpt>
      <trkpt lat="45.06011" lon="5.51852">
        <ele>1108</ele>
        <time>2022-01-15T13:55:38Z</time>
      </trkpt>
      <trkpt lat="45.06022" lon="5.51892">
        <ele>1107</ele>
        <time>2022-01-15T13:56:02Z</time>
      </trkpt>
      <trkpt lat="45.06022" lon="5.51905">
        <ele>1108</ele>
        <time>2022-01-15T13:56:10Z</time>
      </trkpt>
      <trkpt lat="45.06022" lon="5.51957">
        <ele>1109</ele>
        <time>2022-01-15T13:56:39Z</time>
      </trkpt>
      <trkpt lat="45.06025" lon="5.51985">
        <ele>1110</ele>
        <time>2022-01-15T13:56:55Z</time>
      </trkpt>
      <trkpt lat="45.06032" lon="5.51993">
        <ele>1109</ele>
        <time>2022-01-15T13:57:02Z</time>
      </trkpt>
      <trkpt lat="45.06064" lon="5.52032">
        <ele>1108</ele>
        <time>2022-01-15T13:57:36Z</time>
      </trkpt>
      <trkpt lat="45.0609" lon="5.52071">
        <ele>1108</ele>
        <time>2022-01-15T13:58:07Z</time>
      </trkpt>
      <trkpt lat="45.06154" lon="5.52178">
        <ele>1115</ele>
        <time>2022-01-15T13:59:26Z</time>
      </trkpt>
      <trkpt lat="45.06176" lon="5.52189">
        <ele>1113</ele>
        <time>2022-01-15T13:59:44Z</time>
      </trkpt>
      <trkpt lat="45.06179" lon="5.52185">
        <ele>1113</ele>
        <time>2022-01-15T13:59:48Z</time>
      </trkpt>
      <trkpt lat="45.06176" lon="5.52189">
        <ele>1113</ele>
        <time>2022-01-15T13:59:51Z</time>
      </trkpt>
      <trkpt lat="45.0618" lon="5.52194">
        <ele>1113</ele>
        <time>2022-01-15T13:59:55Z</time>
      </trkpt>
      <trkpt lat="45.06191" lon="5.52242">
        <ele>1116</ele>
        <time>2022-01-15T14:00:24Z</time>
      </trkpt>
      <trkpt lat="45.06233" lon="5.52278">
        <ele>1115</ele>
        <time>2022-01-15T14:01:03Z</time>
      </trkpt>
      <trkpt lat="45.06239" lon="5.52288">
        <ele>1116</ele>
        <time>2022-01-15T14:01:11Z</time>
      </trkpt>
      <trkpt lat="45.0624" lon="5.523">
        <ele>1117</ele>
        <time>2022-01-15T14:01:17Z</time>
      </trkpt>
      <trkpt lat="45.06238" lon="5.52311">
        <ele>1119</ele>
        <time>2022-01-15T14:01:24Z</time>
      </trkpt>
      <trkpt lat="45.06233" lon="5.52328">
        <ele>1121</ele>
        <time>2022-01-15T14:01:34Z</time>
      </trkpt>
      <trkpt lat="45.06219" lon="5.52354">
        <ele>1125</ele>
        <time>2022-01-15T14:01:53Z</time>
      </trkpt>
    </trkseg>
  </trk>
</gpx>